Main page
METAR-TAF:

METAR-TAF

Airports :

Ankara Esenboğa, Turkey

Esenboğa International Airport

latitude: 40-07N, longitude: 032-59E, elevation: 953 m

Current weather observation

The report was made 27 minutes ago, at 15:50 UTC
Wind 3 kt from the West/Southwest
Temperature 23°C
Humidity 17%
Pressure 1015 hPa
Visibility 10 km or more
Few clouds at a height of 4000 ft

METAR: LTAC 251550Z 24003KT 9999 FEW040 23/M03 Q1015 NOSIG RMK RWY21L 31003KT 290V350 RWY03L VRB01KT RWY21R VRB01KT

Time: 19:17 (16:17 UTC)

Forecast

The report was made 5 hours and 37 minutes ago, at 10:40 UTC
Forecast valid from 25 at 12 UTC to 26 at 12 UTC
Wind 2 kt from variable directions
Visibility 10 km or more
Few clouds at a height of 4000 ft
Becoming
from 25 at 16 UTC to 25 at 18 UTC
Visibility 10 km or more
no clouds below 1500 m and no cumulonimbus
Becoming
from 26 at 06 UTC to 26 at 09 UTC
Few clouds at a height of 4000 ft

TAF: LTAC 251040Z 2512/2612 VRB02KT 9999 FEW040 BECMG 2516/2518 CAVOK BECMG 2606/2609 FEW040

Weather observations and forecasts of more than 4000 airports (METAR and TAF reports).

The available stations are represented by yellow and red dots on the map.

Hover mouse over dot to see the name of the station.

Then click to see weather observations and forecasts.

To change the map : click on the green buttons with a black cross to zoom in, on the green button with a dash to zoom out, or on the green arrows for adjacent maps.


METAR-TAF: